createdAt,value
2022-11-03T00:01:14.059Z,15.90
2022-11-03T00:03:41.291Z,16.08
2022-11-03T00:06:08.597Z,15.88
2022-11-03T00:08:40.151Z,16.15
2022-11-03T00:11:10.463Z,16.27
2022-11-03T00:13:38.280Z,15.10
2022-11-03T00:16:05.927Z,15.98
2022-11-03T00:18:33.263Z,14.85
2022-11-03T00:21:05.478Z,15.10
2022-11-03T00:23:36.648Z,16.92
2022-11-03T00:26:13.862Z,15.85
2022-11-03T00:28:42.078Z,17.10
2022-11-03T00:31:16.472Z,16.88
2022-11-03T00:33:44.055Z,17.55
2022-11-03T00:36:12.998Z,19.50
2022-11-03T00:38:40.232Z,19.80
2022-11-03T00:41:07.666Z,19.33
2022-11-03T00:43:36.095Z,19.52
2022-11-03T00:46:04.995Z,20.17
2022-11-03T00:48:33.845Z,20.27
2022-11-03T00:51:04.803Z,20.65
2022-11-03T00:53:32.704Z,20.50
2022-11-03T00:56:00.007Z,20.25
2022-11-03T00:58:27.180Z,20.05
2022-11-03T01:01:04.523Z,20.40
2022-11-03T01:03:33.100Z,21.52
2022-11-03T01:06:19.063Z,22.05
2022-11-03T01:08:46.196Z,21.40
2022-11-03T01:11:35.145Z,20.98
2022-11-03T01:14:02.525Z,20.70
2022-11-03T01:16:30.117Z,20.48
2022-11-03T01:18:57.583Z,20.92
2022-11-03T01:21:25.089Z,20.00
2022-11-03T01:23:52.271Z,19.70
2022-11-03T01:26:19.919Z,21.13
2022-11-03T01:28:47.668Z,22.35
2022-11-03T01:31:14.800Z,22.80
2022-11-03T01:33:42.298Z,23.63
2022-11-03T01:36:09.518Z,21.92
2022-11-03T01:38:37.310Z,21.85
2022-11-03T01:41:05.732Z,23.15
2022-11-03T01:43:33.233Z,22.20
2022-11-03T01:46:07.516Z,22.40
2022-11-03T01:48:35.286Z,22.65
2022-11-03T01:51:02.845Z,22.58
2022-11-03T01:53:30.534Z,21.33
2022-11-03T01:55:58.161Z,22.38
2022-11-03T01:58:34.123Z,23.35
2022-11-03T02:01:02.144Z,22.92
2022-11-03T02:03:32.825Z,22.13
2022-11-03T02:06:00.103Z,22.17
2022-11-03T02:08:32.352Z,22.40
2022-11-03T02:10:59.769Z,22.00
2022-11-03T02:13:27.691Z,22.45
2022-11-03T02:15:56.057Z,23.17
2022-11-03T02:18:25.017Z,22.60
2022-11-03T02:20:58.456Z,22.38
2022-11-03T02:23:25.752Z,23.85
2022-11-03T02:25:57.208Z,23.80
2022-11-03T02:28:25.742Z,25.15
2022-11-03T02:30:58.768Z,25.05
2022-11-03T02:33:38.287Z,25.00
2022-11-03T02:36:13.973Z,24.25
2022-11-03T02:38:46.768Z,24.70
2022-11-03T02:41:14.889Z,23.67
2022-11-03T02:43:42.190Z,24.48
2022-11-03T02:46:10.029Z,23.63
2022-11-03T02:48:37.883Z,23.98
2022-11-03T02:51:05.230Z,23.75
2022-11-03T02:53:37.840Z,24.77
2022-11-03T02:56:08.668Z,25.33
2022-11-03T02:58:45.779Z,25.50
2022-11-03T03:01:15.547Z,24.38
2022-11-03T03:03:48.832Z,23.15
2022-11-03T03:06:24.223Z,24.13
2022-11-03T03:08:53.825Z,23.40
2022-11-03T03:11:39.775Z,24.73
2022-11-03T03:14:18.132Z,23.95
2022-11-03T03:17:06.667Z,24.55
2022-11-03T03:19:40.038Z,23.75
2022-11-03T03:22:14.590Z,24.80
2022-11-03T03:24:47.875Z,24.38
2022-11-03T03:27:15.993Z,23.95
2022-11-03T03:29:46.920Z,24.95
2022-11-03T03:32:15.803Z,26.30
2022-11-03T03:34:44.313Z,26.13
2022-11-03T03:37:12.513Z,25.27
2022-11-03T03:39:41.576Z,26.48
2022-11-03T03:42:09.718Z,27.13
2022-11-03T03:44:38.494Z,29.23
2022-11-03T03:47:08.531Z,29.48
2022-11-03T03:49:35.713Z,29.58
2022-11-03T03:52:03.948Z,30.83
2022-11-03T03:54:31.214Z,29.88
2022-11-03T03:57:02.727Z,30.13
2022-11-03T03:59:30.188Z,32.50
2022-11-03T04:01:57.786Z,31.00
2022-11-03T04:04:25.066Z,32.35
2022-11-03T04:07:12.320Z,31.35
2022-11-03T04:09:39.454Z,32.88
2022-11-03T04:12:25.316Z,28.60
2022-11-03T04:15:11.171Z,31.25
2022-11-03T04:17:58.779Z,30.73
2022-11-03T04:20:44.845Z,28.88
2022-11-03T04:23:12.124Z,27.65
2022-11-03T04:25:39.232Z,28.98
2022-11-03T04:28:09.747Z,29.27
2022-11-03T04:30:37.049Z,29.95
2022-11-03T04:33:06.128Z,28.50
2022-11-03T04:35:33.275Z,26.25
2022-11-03T04:38:19.344Z,28.23
2022-11-03T04:40:49.171Z,26.75
2022-11-03T04:43:20.354Z,26.88
2022-11-03T04:45:48.186Z,27.00
2022-11-03T04:48:17.049Z,28.15
2022-11-03T04:50:46.900Z,26.70
2022-11-03T04:53:15.095Z,24.85
2022-11-03T04:55:42.416Z,25.02
2022-11-03T04:58:29.459Z,24.58
2022-11-03T05:01:00.591Z,23.60
2022-11-03T05:03:29.820Z,22.40
2022-11-03T05:05:57.619Z,24.35
2022-11-03T05:08:24.992Z,21.92
2022-11-03T05:10:52.158Z,21.52
2022-11-03T05:13:19.272Z,20.83
2022-11-03T05:15:46.491Z,21.08
2022-11-03T05:18:33.620Z,21.23
2022-11-03T05:21:02.765Z,20.13
2022-11-03T05:23:31.611Z,19.85
2022-11-03T05:25:59.576Z,20.08
2022-11-03T05:28:32.742Z,18.90
2022-11-03T05:31:00.338Z,19.98
2022-11-03T05:33:31.880Z,19.55
2022-11-03T05:36:01.938Z,19.58
2022-11-03T05:38:31.232Z,20.23
2022-11-03T05:40:58.962Z,20.45
2022-11-03T05:43:26.981Z,21.05
2022-11-03T05:45:56.414Z,19.48
2022-11-03T05:48:29.098Z,18.98
2022-11-03T05:51:00.186Z,17.98
2022-11-03T05:53:27.275Z,18.48
2022-11-03T05:55:55.183Z,18.13
2022-11-03T05:58:25.324Z,16.88
2022-11-03T06:00:52.918Z,16.65
2022-11-03T06:03:28.098Z,16.88
2022-11-03T06:05:55.732Z,15.32
2022-11-03T06:10:58.866Z,14.65
2022-11-03T06:13:36.636Z,14.57
2022-11-03T06:16:07.151Z,14.38
2022-11-03T06:18:36.977Z,13.70
2022-11-03T06:21:07.847Z,12.93
2022-11-03T06:23:36.388Z,12.10
2022-11-03T06:26:03.996Z,11.55
2022-11-03T06:28:33.061Z,12.10
2022-11-03T06:31:02.674Z,11.63
2022-11-03T06:33:31.854Z,11.23
2022-11-03T06:36:13.433Z,11.57
2022-11-03T06:38:40.662Z,10.70
2022-11-03T06:41:15.557Z,10.52
2022-11-03T06:43:43.403Z,10.52
2022-11-03T06:46:16.108Z,9.95
2022-11-03T06:48:43.304Z,9.75
2022-11-03T06:51:15.776Z,9.88
2022-11-03T06:53:43.006Z,9.52
2022-11-03T06:56:19.627Z,10.23
2022-11-03T06:58:49.043Z,10.80
2022-11-03T07:01:18.719Z,11.05
2022-11-03T07:03:46.346Z,11.18
2022-11-03T07:06:16.444Z,11.85
2022-11-03T07:08:48.479Z,12.00
2022-11-03T07:11:18.504Z,12.82
2022-11-03T07:13:46.105Z,11.63
2022-11-03T07:16:17.769Z,11.00
2022-11-03T07:18:47.826Z,11.75
2022-11-03T07:21:35.271Z,12.25
2022-11-03T07:24:03.983Z,13.52
2022-11-03T07:26:33.174Z,13.75
2022-11-03T07:29:01.016Z,14.30
2022-11-03T07:31:28.255Z,14.60
2022-11-03T07:33:59.540Z,14.48
2022-11-03T07:36:28.314Z,15.23
2022-11-03T07:38:56.784Z,14.88
2022-11-03T07:41:31.113Z,15.85
2022-11-03T07:44:02.112Z,16.42
2022-11-03T07:46:29.519Z,17.25
2022-11-03T07:49:02.271Z,16.38
2022-11-03T07:51:32.217Z,15.93
2022-11-03T07:53:59.401Z,15.57
2022-11-03T07:56:27.915Z,15.23
2022-11-03T07:58:59.884Z,15.88
2022-11-03T08:01:28.670Z,14.55
2022-11-03T08:03:57.954Z,14.68
2022-11-03T08:06:25.142Z,12.95
2022-11-03T08:08:52.332Z,12.07
2022-11-03T08:11:21.942Z,12.18
2022-11-03T08:13:52.615Z,10.88
2022-11-03T08:16:20.274Z,10.80
2022-11-03T08:18:47.957Z,12.13
2022-11-03T08:21:15.335Z,12.32
2022-11-03T08:23:47.172Z,11.23
2022-11-03T08:26:15.219Z,11.45
2022-11-03T08:28:42.461Z,11.25
2022-11-03T08:31:12.850Z,12.20
2022-11-03T08:33:40.946Z,11.10
2022-11-03T08:36:11.059Z,12.10
2022-11-03T08:38:38.393Z,11.52
2022-11-03T08:41:05.778Z,9.48
2022-11-03T08:43:32.917Z,10.73
2022-11-03T08:46:06.803Z,9.70
2022-11-03T08:48:37.208Z,10.95
2022-11-03T08:51:04.442Z,10.38
2022-11-03T08:53:31.632Z,11.05
2022-11-03T08:55:58.861Z,10.95
2022-11-03T08:58:26.880Z,11.82
2022-11-03T09:00:53.988Z,11.40
2022-11-03T09:03:21.315Z,11.82
2022-11-03T09:05:48.597Z,11.70
2022-11-03T09:11:02.966Z,10.32
2022-11-03T09:13:30.114Z,9.85
2022-11-03T09:15:57.229Z,9.70
2022-11-03T09:18:24.477Z,8.38
2022-11-03T09:20:51.604Z,9.32
2022-11-03T09:23:18.724Z,8.23
2022-11-03T09:25:45.919Z,8.30
2022-11-03T09:28:13.051Z,7.85
2022-11-03T09:30:40.175Z,7.07
2022-11-03T09:33:07.398Z,7.15
2022-11-03T09:35:34.528Z,6.75
2022-11-03T09:38:01.698Z,6.53
2022-11-03T09:40:28.979Z,7.07
2022-11-03T09:42:57.563Z,6.60
2022-11-03T09:45:24.737Z,5.72
2022-11-03T09:47:51.927Z,7.13
2022-11-03T09:50:20.437Z,6.63
2022-11-03T09:52:51.559Z,6.38
2022-11-03T09:57:47.357Z,6.18
2022-11-03T10:00:18.453Z,7.20
2022-11-03T10:02:45.749Z,6.15
2022-11-03T10:05:17.956Z,7.15
2022-11-03T10:07:46.050Z,7.28
2022-11-03T10:10:17.643Z,7.18
2022-11-03T10:12:44.944Z,7.78
2022-11-03T10:15:16.418Z,6.75
2022-11-03T10:17:44.490Z,7.80
2022-11-03T10:20:15.945Z,7.85
2022-11-03T10:22:47.039Z,7.55
2022-11-03T10:25:31.181Z,5.43
2022-11-03T10:28:16.744Z,4.63
2022-11-03T10:31:11.277Z,4.20
2022-11-03T10:33:52.082Z,4.53
2022-11-03T10:36:19.309Z,3.90
2022-11-03T10:38:47.693Z,3.53
2022-11-03T10:41:14.972Z,3.25
2022-11-03T10:43:43.019Z,3.25
2022-11-03T10:46:29.682Z,2.92
2022-11-03T10:49:02.933Z,2.45
2022-11-03T10:51:30.329Z,2.17
2022-11-03T10:53:57.832Z,1.98
2022-11-03T10:56:25.293Z,2.55
2022-11-03T10:58:52.821Z,2.22
2022-11-03T11:01:20.108Z,3.00
2022-11-03T11:03:47.576Z,2.53
2022-11-03T11:06:22.270Z,2.50
2022-11-03T11:08:51.642Z,2.05
2022-11-03T11:11:22.738Z,2.28
2022-11-03T11:14:08.563Z,2.22
2022-11-03T11:16:55.941Z,2.50
2022-11-03T11:19:23.914Z,3.53
2022-11-03T11:21:58.332Z,3.85
2022-11-03T11:24:43.775Z,3.67
2022-11-03T11:27:31.808Z,3.60
2022-11-03T11:29:59.554Z,2.90
2022-11-03T11:32:46.886Z,3.05
2022-11-03T11:35:18.601Z,3.17
2022-11-03T11:37:45.828Z,3.53
2022-11-03T11:40:15.881Z,4.05
2022-11-03T11:43:01.614Z,3.97
2022-11-03T11:45:47.658Z,3.40
2022-11-03T11:48:19.171Z,4.13
2022-11-03T11:50:47.009Z,3.20
2022-11-03T11:53:19.568Z,3.97
2022-11-03T11:55:51.659Z,4.07
2022-11-03T11:58:31.124Z,5.78
2022-11-03T12:01:02.731Z,5.70
2022-11-03T12:03:34.536Z,5.15
2022-11-03T12:06:01.749Z,17.13
2022-11-03T12:08:30.296Z,4.15
2022-11-03T12:10:59.071Z,2.92
2022-11-03T12:13:47.576Z,2.58
2022-11-03T12:16:28.357Z,2.30
2022-11-03T12:18:55.695Z,2.35
2022-11-03T12:21:41.417Z,2.47
2022-11-03T12:24:27.956Z,2.70
2022-11-03T12:26:55.202Z,2.70
2022-11-03T12:29:22.339Z,2.63
2022-11-03T12:31:50.038Z,2.80
2022-11-03T12:34:17.521Z,2.88
2022-11-03T12:36:45.241Z,3.17
2022-11-03T12:39:12.821Z,2.80
2022-11-03T12:41:40.089Z,2.85
2022-11-03T12:44:07.251Z,3.30
2022-11-03T12:46:34.434Z,2.72
2022-11-03T12:49:01.686Z,3.00
2022-11-03T12:51:28.824Z,2.97
2022-11-03T12:53:56.024Z,3.30
2022-11-03T12:56:23.206Z,4.05
2022-11-03T12:58:50.322Z,3.90
2022-11-03T13:01:18.706Z,3.80
2022-11-03T13:03:46.091Z,3.90
2022-11-03T13:06:15.003Z,4.07
2022-11-03T13:08:42.335Z,4.20
2022-11-03T13:11:29.556Z,4.55
2022-11-03T13:13:57.063Z,3.65
2022-11-03T13:16:24.481Z,3.72
2022-11-03T13:18:51.841Z,3.97
2022-11-03T13:21:19.244Z,4.57
2022-11-03T13:23:46.397Z,3.50
2022-11-03T13:26:13.776Z,3.25
2022-11-03T13:28:40.968Z,3.67
2022-11-03T13:31:08.102Z,3.70
2022-11-03T13:33:35.307Z,3.30
2022-11-03T13:36:02.527Z,3.80
2022-11-03T13:38:29.798Z,3.80
2022-11-03T13:40:59.362Z,4.57
2022-11-03T13:43:29.539Z,4.38
2022-11-03T13:46:02.648Z,4.03
2022-11-03T13:51:19.042Z,4.28
2022-11-03T14:07:07.630Z,3.83
2022-11-03T14:12:25.982Z,3.78
2022-11-03T14:14:53.137Z,4.50
2022-11-03T14:17:20.333Z,4.07
2022-11-03T14:19:52.432Z,3.75
2022-11-03T14:22:24.009Z,3.85
2022-11-03T14:24:52.075Z,4.05
2022-11-03T14:27:20.076Z,3.60
2022-11-03T14:29:50.670Z,3.40
2022-11-03T14:32:18.485Z,3.80
2022-11-03T14:34:46.133Z,3.70
2022-11-03T14:37:13.705Z,4.30
2022-11-03T14:39:41.019Z,3.70
2022-11-03T14:42:15.012Z,4.32
2022-11-03T14:44:43.150Z,4.22
2022-11-03T14:47:11.462Z,4.15
2022-11-03T14:49:38.779Z,3.90
2022-11-03T14:52:07.354Z,3.90
2022-11-03T14:54:34.855Z,4.13
2022-11-03T14:57:02.025Z,4.47
2022-11-03T14:59:29.384Z,4.07
2022-11-03T15:01:57.026Z,3.80
2022-11-03T15:04:24.320Z,4.15
2022-11-03T15:06:51.670Z,4.00
2022-11-03T15:09:19.583Z,4.03
2022-11-03T15:11:47.014Z,3.78
2022-11-03T15:14:14.251Z,3.45
2022-11-03T15:16:41.454Z,3.08
2022-11-03T15:19:08.833Z,3.25
2022-11-03T15:21:36.295Z,3.60
2022-11-03T15:26:50.833Z,3.30
2022-11-03T15:29:17.960Z,3.67
2022-11-03T15:31:48.249Z,3.70
2022-11-03T15:34:16.063Z,3.30
2022-11-03T15:36:43.230Z,3.03
2022-11-03T15:39:10.410Z,3.95
2022-11-03T15:41:37.605Z,3.78
2022-11-03T15:44:04.749Z,3.75
2022-11-03T15:46:31.872Z,3.58
2022-11-03T15:48:59.194Z,3.97
2022-11-03T15:51:26.302Z,3.63
2022-11-03T15:53:58.567Z,3.85
2022-11-03T15:56:27.224Z,3.78
2022-11-03T15:58:54.376Z,3.75
2022-11-03T16:01:21.722Z,4.05
2022-11-03T16:03:49.106Z,4.30
2022-11-03T16:06:16.421Z,3.60
2022-11-03T16:08:43.639Z,4.05
2022-11-03T16:11:10.927Z,4.28
2022-11-03T16:13:38.048Z,4.15
2022-11-03T16:16:05.559Z,4.68
2022-11-03T16:18:32.829Z,4.35
2022-11-03T16:20:59.991Z,4.38
2022-11-03T16:23:27.093Z,5.00
2022-11-03T16:25:54.415Z,4.80
2022-11-03T16:28:21.620Z,5.63
2022-11-03T16:30:54.053Z,5.10
2022-11-03T16:33:21.963Z,4.75
2022-11-03T16:35:49.405Z,4.63
2022-11-03T16:38:16.879Z,5.15
2022-11-03T16:40:45.687Z,5.80
2022-11-03T16:43:13.134Z,5.57
2022-11-03T16:45:40.295Z,5.07
2022-11-03T16:48:07.963Z,5.40
2022-11-03T16:50:35.613Z,5.93
2022-11-03T16:53:03.311Z,6.05
2022-11-03T16:55:30.613Z,5.60
2022-11-03T16:57:57.900Z,5.60
2022-11-03T17:00:25.194Z,5.95
2022-11-03T17:02:52.779Z,5.88
2022-11-03T17:05:21.199Z,4.82
2022-11-03T17:07:53.339Z,5.45
2022-11-03T17:10:21.570Z,5.60
2022-11-03T17:12:48.789Z,5.05
2022-11-03T17:15:17.191Z,5.80
2022-11-03T17:17:44.499Z,5.20
2022-11-03T17:20:12.275Z,5.30
2022-11-03T17:22:39.439Z,6.15
2022-11-03T17:25:07.922Z,4.93
2022-11-03T17:27:49.904Z,4.78
2022-11-03T17:30:23.324Z,5.28
2022-11-03T17:32:53.174Z,4.35
2022-11-03T17:35:22.298Z,5.00
2022-11-03T17:37:50.267Z,4.65
2022-11-03T17:40:18.443Z,6.30
2022-11-03T17:42:45.610Z,4.45
2022-11-03T17:45:13.603Z,4.68
2022-11-03T17:47:40.899Z,4.70
2022-11-03T17:50:09.010Z,4.70
2022-11-03T17:52:37.622Z,5.07
2022-11-03T17:55:06.919Z,4.95
2022-11-03T17:57:34.215Z,4.68
2022-11-03T18:00:01.568Z,4.78
2022-11-03T18:02:31.543Z,4.95
2022-11-03T18:05:02.031Z,5.07
2022-11-03T18:07:30.570Z,4.60
2022-11-03T18:09:57.807Z,5.20
2022-11-03T18:12:46.018Z,4.60
2022-11-03T18:15:18.904Z,4.03
2022-11-03T18:17:46.544Z,4.50
2022-11-03T18:20:21.937Z,4.85
2022-11-03T18:22:49.399Z,4.75
2022-11-03T18:25:17.743Z,4.93
2022-11-03T18:27:45.244Z,4.25
2022-11-03T18:30:13.518Z,5.22
2022-11-03T18:32:41.697Z,4.50
2022-11-03T18:35:12.952Z,4.50
2022-11-03T18:40:09.723Z,4.65
2022-11-03T18:42:36.862Z,4.60
2022-11-03T18:45:11.957Z,4.80
2022-11-03T18:47:39.194Z,4.13
2022-11-03T18:50:07.000Z,4.70
2022-11-03T18:52:37.445Z,4.68
2022-11-03T18:55:04.904Z,5.00
2022-11-03T18:57:32.103Z,4.43
2022-11-03T18:59:59.422Z,5.32
2022-11-03T19:02:28.218Z,5.13
2022-11-03T19:04:55.537Z,4.40
2022-11-03T19:07:26.793Z,5.22
2022-11-03T19:12:21.843Z,5.30
2022-11-03T19:14:49.741Z,5.25
2022-11-03T19:17:25.412Z,6.40
2022-11-03T19:19:53.504Z,5.43
2022-11-03T19:22:21.771Z,7.00
2022-11-03T19:24:48.934Z,7.63
2022-11-03T19:27:36.415Z,7.43
2022-11-03T19:30:04.692Z,7.72
2022-11-03T19:32:33.564Z,7.65
2022-11-03T19:35:00.864Z,8.13
2022-11-03T19:37:34.054Z,8.02
2022-11-03T19:40:02.719Z,9.38
2022-11-03T19:42:35.123Z,9.57
2022-11-03T19:45:05.539Z,10.15
2022-11-03T19:47:39.711Z,10.10
2022-11-03T19:50:18.422Z,10.05
2022-11-03T19:52:45.934Z,9.57
2022-11-03T19:55:14.409Z,10.65
2022-11-03T19:57:41.605Z,11.90
2022-11-03T20:00:16.232Z,11.60
2022-11-03T20:02:44.511Z,9.77
2022-11-03T20:05:15.185Z,10.68
2022-11-03T20:07:43.359Z,10.00
2022-11-03T20:10:16.341Z,10.30
2022-11-03T20:12:44.025Z,11.07
2022-11-03T20:15:17.641Z,11.15
2022-11-03T20:17:45.465Z,11.93
2022-11-03T20:20:14.915Z,12.25
2022-11-03T20:22:43.594Z,11.63
2022-11-03T20:25:13.105Z,12.57
2022-11-03T20:27:40.303Z,12.25
2022-11-03T20:30:07.741Z,11.10
2022-11-03T20:32:34.872Z,11.85
2022-11-03T20:35:02.055Z,11.70
2022-11-03T20:37:29.370Z,12.45
2022-11-03T20:39:56.533Z,11.73
2022-11-03T20:42:25.158Z,11.70
2022-11-03T20:44:52.884Z,13.30
2022-11-03T20:47:21.501Z,12.30
2022-11-03T20:49:48.661Z,13.73
2022-11-03T20:52:16.324Z,12.38
2022-11-03T20:54:43.823Z,12.32
2022-11-03T20:57:14.440Z,12.07
2022-11-03T20:59:41.653Z,11.10
2022-11-03T21:02:12.639Z,11.93
2022-11-03T21:07:07.204Z,12.77
2022-11-03T21:09:34.358Z,11.85
2022-11-03T21:12:01.507Z,11.65
2022-11-03T21:14:33.261Z,12.60
2022-11-03T21:17:19.273Z,10.45
2022-11-03T21:19:58.804Z,11.60
2022-11-03T21:22:53.437Z,11.43
2022-11-03T21:25:22.475Z,13.48
2022-11-03T21:27:49.834Z,11.85
2022-11-03T21:30:17.556Z,12.27
2022-11-03T21:32:44.996Z,11.77
2022-11-03T21:35:20.789Z,12.38
2022-11-03T21:37:48.114Z,11.90
2022-11-03T21:40:15.405Z,12.35
2022-11-03T21:43:01.476Z,10.85
2022-11-03T21:45:28.939Z,10.30
2022-11-03T21:48:15.603Z,10.63
2022-11-03T21:50:43.456Z,10.90
2022-11-03T21:53:11.520Z,12.05
2022-11-03T21:55:39.461Z,11.25
2022-11-03T21:58:06.692Z,10.48
2022-11-03T22:00:33.866Z,10.70
2022-11-03T22:03:01.273Z,10.93
2022-11-03T22:05:29.348Z,11.50
2022-11-03T22:07:56.529Z,10.95
2022-11-03T22:10:24.328Z,11.07
2022-11-03T22:12:51.442Z,11.77
2022-11-03T22:15:37.171Z,10.75
2022-11-03T22:18:04.892Z,10.88
2022-11-03T22:20:51.149Z,9.57
2022-11-03T22:23:37.290Z,9.63
2022-11-03T22:26:23.378Z,10.40
2022-11-03T22:29:10.491Z,10.00
2022-11-03T22:31:40.861Z,10.70
2022-11-03T22:34:26.485Z,10.53
2022-11-03T22:36:53.841Z,11.15
2022-11-03T22:39:39.569Z,11.02
2022-11-03T22:42:25.648Z,11.50
2022-11-03T22:45:11.656Z,10.25
2022-11-03T22:47:38.830Z,10.70
2022-11-03T22:50:06.090Z,11.70
2022-11-03T22:52:33.384Z,11.25
2022-11-03T22:55:00.567Z,10.90
2022-11-03T22:57:27.779Z,10.57
2022-11-03T22:59:54.959Z,10.63
2022-11-03T23:02:22.235Z,11.73
2022-11-03T23:04:49.416Z,11.13
2022-11-03T23:07:16.547Z,10.85
2022-11-03T23:09:43.737Z,11.38
2022-11-03T23:12:11.323Z,12.50
2022-11-03T23:14:57.131Z,11.18
2022-11-03T23:17:44.233Z,11.27
2022-11-03T23:20:30.401Z,11.43
2022-11-03T23:22:57.499Z,11.38
2022-11-03T23:25:24.627Z,12.10
2022-11-03T23:27:52.783Z,12.27
2022-11-03T23:30:20.060Z,12.13
2022-11-03T23:32:47.178Z,11.52
2022-11-03T23:35:14.707Z,11.85
2022-11-03T23:37:41.825Z,10.63
2022-11-03T23:40:09.185Z,11.75
2022-11-03T23:42:36.356Z,11.10
2022-11-03T23:45:22.178Z,11.45
2022-11-03T23:48:08.607Z,11.98
2022-11-03T23:50:35.914Z,12.20
2022-11-03T23:53:03.031Z,11.68
2022-11-03T23:55:50.291Z,11.02
2022-11-03T23:58:20.422Z,11.85
